createdAt,value
2019-05-12T04:30:44.781Z,2.67
2019-05-12T04:35:40.602Z,3.73
2019-05-12T04:40:36.541Z,4.80
2019-05-12T04:45:34.726Z,2.20
2019-05-12T04:50:30.087Z,3.10
2019-05-12T04:55:25.935Z,3.53
2019-05-12T05:00:25.435Z,3.37
2019-05-12T05:05:19.692Z,2.20
2019-05-12T05:10:15.414Z,3.27
2019-05-12T05:15:14.361Z,2.83
2019-05-12T05:20:08.927Z,2.97
2019-05-12T05:25:04.727Z,3.47
2019-05-12T05:30:00.571Z,5.20
2019-05-12T05:34:57.933Z,3.23
2019-05-12T05:39:54.034Z,2.87
2019-05-12T05:44:49.803Z,6.60
2019-05-12T05:49:45.594Z,2.13
2019-05-12T05:54:41.388Z,3.53
2019-05-12T05:59:37.436Z,4.23
2019-05-12T06:04:34.186Z,2.80
2019-05-12T06:09:30.078Z,2.97
2019-05-12T06:14:25.855Z,5.17
2019-05-12T06:19:24.076Z,6.50
2019-05-12T06:24:20.247Z,6.53
2019-05-12T06:29:20.106Z,5.67
2019-05-12T06:34:18.675Z,3.90
2019-05-12T06:39:18.680Z,5.90
2019-05-12T06:44:14.898Z,3.87
2019-05-12T06:49:12.899Z,5.30
2019-05-12T06:54:07.288Z,4.33
2019-05-12T06:59:09.885Z,3.63
2019-05-12T07:04:00.541Z,4.33
2019-05-12T07:09:06.398Z,4.63
2019-05-12T07:14:04.528Z,6.50
2019-05-12T07:18:54.195Z,3.73
2019-05-12T07:23:50.201Z,6.20
2019-05-12T07:28:46.006Z,5.00
2019-05-12T07:33:45.697Z,10.13
2019-05-12T07:38:40.197Z,7.87
2019-05-12T07:43:36.511Z,6.93
2019-05-12T07:48:33.436Z,7.83
2019-05-12T07:53:30.007Z,9.17
2019-05-12T07:58:25.869Z,6.20
2019-05-12T08:03:24.204Z,6.97
2019-05-12T08:08:19.783Z,8.93
2019-05-12T08:13:18.291Z,8.27
2019-05-12T08:18:13.984Z,7.30
2019-05-12T08:23:10.750Z,9.67
2019-05-12T08:28:14.982Z,9.93
2019-05-12T08:33:09.625Z,8.70
2019-05-12T08:38:03.903Z,11.30
2019-05-12T08:43:04.766Z,8.57
2019-05-12T08:47:57.146Z,6.00
2019-05-12T08:52:53.857Z,8.97
2019-05-12T08:57:49.858Z,10.77
2019-05-12T09:02:50.387Z,7.30
2019-05-12T09:07:44.318Z,7.60
2019-05-12T09:12:40.127Z,5.90
2019-05-12T09:17:42.417Z,5.90
2019-05-12T09:22:34.321Z,6.53
2019-05-12T09:27:30.528Z,6.93
2019-05-12T09:32:26.338Z,8.20
2019-05-12T09:37:24.058Z,9.17
2019-05-12T09:42:25.628Z,9.73
2019-05-12T09:47:23.298Z,5.70
2019-05-12T09:52:22.118Z,5.90
2019-05-12T09:57:13.777Z,8.13
2019-05-12T10:02:10.587Z,4.30
2019-05-12T10:07:07.707Z,5.70
2019-05-12T10:12:05.602Z,9.50
2019-05-12T10:17:03.436Z,6.70
2019-05-12T10:21:59.655Z,9.40
2019-05-12T10:26:55.572Z,7.60
2019-05-12T10:31:53.652Z,6.30
2019-05-12T10:36:49.665Z,5.23
2019-05-12T10:41:46.353Z,9.10
2019-05-12T10:46:43.540Z,6.87
2019-05-12T10:51:39.328Z,6.73
2019-05-12T10:56:35.124Z,7.33
2019-05-12T11:01:30.841Z,6.67
2019-05-12T11:06:26.945Z,4.37
2019-05-12T11:11:24.057Z,5.70
2019-05-12T11:16:30.350Z,5.47
2019-05-12T11:21:17.847Z,6.23
2019-05-12T11:26:14.198Z,8.20
2019-05-12T11:31:10.171Z,5.73
2019-05-12T11:36:05.899Z,5.83
2019-05-12T11:41:01.640Z,5.57
2019-05-12T11:45:57.351Z,5.87
2019-05-12T11:50:54.496Z,4.47
2019-05-12T11:55:51.060Z,3.87
2019-05-12T12:00:48.733Z,6.58
2019-05-12T12:05:44.457Z,3.85
2019-05-12T12:10:40.192Z,3.45
2019-05-12T12:15:36.054Z,3.10
2019-05-12T12:20:33.837Z,2.85
2019-05-12T12:25:30.975Z,3.40
2019-05-12T12:30:26.756Z,2.35
2019-05-12T12:35:23.343Z,4.50
2019-05-12T12:40:19.283Z,3.65
2019-05-12T12:45:30.421Z,4.83
2019-05-12T12:50:26.480Z,3.05
2019-05-12T12:55:23.317Z,3.80
2019-05-12T13:00:29.749Z,2.50
2019-05-12T13:05:16.952Z,3.52
2019-05-12T13:10:14.238Z,2.35
2019-05-12T13:15:10.707Z,4.53
2019-05-12T13:20:08.404Z,3.75
2019-05-12T13:25:08.461Z,4.15
2019-05-12T13:30:05.444Z,3.22
2019-05-12T13:35:01.235Z,3.98
2019-05-12T13:40:00.078Z,3.20
2019-05-12T13:44:55.449Z,4.67
2019-05-12T13:49:51.177Z,3.90
2019-05-12T13:54:46.859Z,3.08
2019-05-12T13:59:43.499Z,3.87
2019-05-12T14:04:39.368Z,2.90
2019-05-12T14:09:35.087Z,4.03
2019-05-12T14:14:30.909Z,2.90
2019-05-12T14:19:30.395Z,2.47
2019-05-12T14:24:24.521Z,3.12
2019-05-12T14:29:20.470Z,2.45
2019-05-12T14:34:20.838Z,2.62
2019-05-12T14:39:16.014Z,1.42
2019-05-12T14:44:13.786Z,2.65
2019-05-12T14:49:09.675Z,2.47
2019-05-12T14:54:05.402Z,3.53
2019-05-12T14:59:03.378Z,3.45
2019-05-12T15:03:58.723Z,1.97
2019-05-12T15:08:54.499Z,2.43
2019-05-12T15:13:50.471Z,1.53
2019-05-12T15:18:49.097Z,1.20
2019-05-12T15:23:44.235Z,2.70
2019-05-12T15:28:39.999Z,1.87
2019-05-12T15:33:35.721Z,1.33
2019-05-12T15:38:31.438Z,1.67
2019-05-12T15:43:27.143Z,4.30
2019-05-12T15:48:25.554Z,1.43
2019-05-12T15:53:24.622Z,1.77
2019-05-12T15:58:18.686Z,3.23
2019-05-12T16:03:14.642Z,3.23
2019-05-12T16:08:10.366Z,2.40
2019-05-12T16:13:06.332Z,1.73
2019-05-12T16:18:08.137Z,1.43
2019-05-12T16:23:00.370Z,2.83
2019-05-12T16:27:56.088Z,5.00
2019-05-12T16:32:54.870Z,3.33
2019-05-12T16:37:49.668Z,2.07
2019-05-12T16:42:50.814Z,1.77
2019-05-12T16:47:44.716Z,1.50
2019-05-12T16:52:42.097Z,2.37
2019-05-12T16:57:50.206Z,1.70
2019-05-12T17:02:41.820Z,1.20
2019-05-12T17:07:34.438Z,2.30
2019-05-12T17:12:32.664Z,1.70
2019-05-12T17:17:28.159Z,2.13
2019-05-12T17:22:24.149Z,2.47
2019-05-12T17:27:24.292Z,2.53
2019-05-12T17:32:17.461Z,3.50
2019-05-12T17:37:14.580Z,1.67
2019-05-12T17:42:13.117Z,1.87
2019-05-12T17:47:14.821Z,6.60
2019-05-12T17:52:12.982Z,2.63
2019-05-12T17:57:04.093Z,2.83
2019-05-12T18:02:00.005Z,1.40
2019-05-12T18:06:55.703Z,2.50
2019-05-12T18:11:56.009Z,5.83
2019-05-12T18:16:55.537Z,8.00
2019-05-12T18:21:46.794Z,6.33
2019-05-12T18:26:48.691Z,3.97
2019-05-12T18:31:40.403Z,1.90
2019-05-12T18:36:36.142Z,3.53
2019-05-12T18:41:33.741Z,1.93
2019-05-12T18:46:29.627Z,1.80
2019-05-12T18:51:25.461Z,3.37
2019-05-12T18:56:22.030Z,2.70
2019-05-12T19:01:19.393Z,2.87
2019-05-12T19:06:15.147Z,3.00
2019-05-12T19:11:19.970Z,3.40
2019-05-12T19:16:11.267Z,2.10
2019-05-12T19:21:10.159Z,1.50
2019-05-12T19:26:04.265Z,4.20
2019-05-12T19:31:01.043Z,1.60
2019-05-12T19:36:04.318Z,2.13
2019-05-12T19:41:00.655Z,4.07
2019-05-12T19:46:03.003Z,3.67
2019-05-12T19:50:55.528Z,2.00
2019-05-12T19:55:49.204Z,2.60
2019-05-12T20:00:45.005Z,5.67
2019-05-12T20:05:40.715Z,2.23
2019-05-12T20:10:46.522Z,2.20
2019-05-12T20:15:39.037Z,5.23
2019-05-12T20:20:36.561Z,2.67
2019-05-12T20:25:29.479Z,3.27
2019-05-12T20:30:28.015Z,4.17
2019-05-12T20:35:23.081Z,2.23
2019-05-12T20:40:19.157Z,1.70
2019-05-12T20:45:15.325Z,2.47
2019-05-12T20:50:11.167Z,1.83
2019-05-12T20:55:07.031Z,2.47
2019-05-12T21:00:08.113Z,1.30
2019-05-12T21:05:09.952Z,3.57
2019-05-12T21:10:04.129Z,3.60
2019-05-12T21:15:12.665Z,2.97
2019-05-12T21:19:59.437Z,2.33
2019-05-12T21:24:55.301Z,3.13
2019-05-12T21:29:51.009Z,1.60
2019-05-12T21:34:46.989Z,3.27
2019-05-12T21:39:48.231Z,5.07
2019-05-12T21:44:41.374Z,5.60
2019-05-12T21:49:42.701Z,3.10
2019-05-12T21:54:39.381Z,3.83
2019-05-12T21:59:37.744Z,3.70
2019-05-12T22:04:32.993Z,2.50
2019-05-12T22:09:34.852Z,2.87
2019-05-12T22:14:30.573Z,4.93
2019-05-12T22:19:24.242Z,4.73
2019-05-12T22:24:27.546Z,2.00
2019-05-12T22:29:21.292Z,2.13
2019-05-12T22:34:15.598Z,4.13
2019-05-12T22:39:11.311Z,2.47
2019-05-12T22:44:07.124Z,4.47
2019-05-12T22:49:04.214Z,3.40
2019-05-12T22:54:05.555Z,3.87
2019-05-12T22:59:00.199Z,3.90
2019-05-12T23:03:56.041Z,2.40
2019-05-12T23:08:54.088Z,3.40
2019-05-12T23:13:49.779Z,3.33
2019-05-12T23:18:45.754Z,3.23
2019-05-12T23:23:41.437Z,4.53
2019-05-12T23:28:40.571Z,2.30
2019-05-12T23:33:36.630Z,2.17
2019-05-12T23:38:33.956Z,4.87
2019-05-12T23:43:30.075Z,3.87
2019-05-12T23:48:25.787Z,3.73
2019-05-12T23:53:21.680Z,1.93
2019-05-12T23:58:17.478Z,2.10
